sensor_id;sensor_type;location;lat;lon;timestamp;P1;durP1;ratioP1;P2;durP2;ratioP2
22614;SDS011;11474;50.790;0.298;2023-12-20T00:01:01;10.82;;;2.47;;
22614;SDS011;11474;50.790;0.298;2023-12-20T00:03:27;12.68;;;2.38;;
22614;SDS011;11474;50.790;0.298;2023-12-20T00:05:53;12.13;;;2.35;;
22614;SDS011;11474;50.790;0.298;2023-12-20T00:08:20;12.60;;;2.60;;
22614;SDS011;11474;50.790;0.298;2023-12-20T00:10:46;12.27;;;2.38;;
22614;SDS011;11474;50.790;0.298;2023-12-20T00:13:12;11.52;;;2.38;;
22614;SDS011;11474;50.790;0.298;2023-12-20T00:15:38;14.68;;;2.50;;
22614;SDS011;11474;50.790;0.298;2023-12-20T00:18:04;17.02;;;2.78;;
22614;SDS011;11474;50.790;0.298;2023-12-20T00:20:31;17.30;;;2.75;;
22614;SDS011;11474;50.790;0.298;2023-12-20T00:22:57;11.57;;;2.47;;
22614;SDS011;11474;50.790;0.298;2023-12-20T00:25:23;18.60;;;2.53;;
22614;SDS011;11474;50.790;0.298;2023-12-20T00:27:49;10.65;;;2.83;;
22614;SDS011;11474;50.790;0.298;2023-12-20T00:30:16;12.00;;;2.22;;
22614;SDS011;11474;50.790;0.298;2023-12-20T00:32:42;14.32;;;2.58;;
22614;SDS011;11474;50.790;0.298;2023-12-20T00:35:14;13.45;;;2.22;;
22614;SDS011;11474;50.790;0.298;2023-12-20T00:37:41;12.00;;;2.20;;
22614;SDS011;11474;50.790;0.298;2023-12-20T00:40:07;11.73;;;2.28;;
22614;SDS011;11474;50.790;0.298;2023-12-20T00:42:33;13.73;;;2.25;;
22614;SDS011;11474;50.790;0.298;2023-12-20T00:45:00;13.73;;;2.73;;
22614;SDS011;11474;50.790;0.298;2023-12-20T00:47:27;11.57;;;2.15;;
22614;SDS011;11474;50.790;0.298;2023-12-20T00:49:53;15.65;;;2.67;;
22614;SDS011;11474;50.790;0.298;2023-12-20T00:52:19;10.27;;;2.45;;
22614;SDS011;11474;50.790;0.298;2023-12-20T00:54:47;8.93;;;2.20;;
22614;SDS011;11474;50.790;0.298;2023-12-20T00:57:13;10.43;;;2.35;;
22614;SDS011;11474;50.790;0.298;2023-12-20T00:59:39;12.10;;;2.58;;
22614;SDS011;11474;50.790;0.298;2023-12-20T01:02:05;15.15;;;2.60;;
22614;SDS011;11474;50.790;0.298;2023-12-20T01:04:31;15.00;;;2.30;;
22614;SDS011;11474;50.790;0.298;2023-12-20T01:06:57;13.43;;;2.60;;
22614;SDS011;11474;50.790;0.298;2023-12-20T01:09:23;11.60;;;2.20;;
22614;SDS011;11474;50.790;0.298;2023-12-20T01:11:51;10.50;;;2.35;;
22614;SDS011;11474;50.790;0.298;2023-12-20T01:14:17;10.50;;;2.47;;
22614;SDS011;11474;50.790;0.298;2023-12-20T01:16:43;13.23;;;2.40;;
22614;SDS011;11474;50.790;0.298;2023-12-20T01:19:09;10.48;;;2.17;;
22614;SDS011;11474;50.790;0.298;2023-12-20T01:21:36;9.50;;;2.15;;
22614;SDS011;11474;50.790;0.298;2023-12-20T01:24:02;11.55;;;2.33;;
22614;SDS011;11474;50.790;0.298;2023-12-20T01:26:28;11.57;;;2.65;;
22614;SDS011;11474;50.790;0.298;2023-12-20T01:28:54;12.88;;;2.38;;
22614;SDS011;11474;50.790;0.298;2023-12-20T01:31:20;14.55;;;2.83;;
22614;SDS011;11474;50.790;0.298;2023-12-20T01:33:46;13.55;;;2.50;;
22614;SDS011;11474;50.790;0.298;2023-12-20T01:36:12;12.30;;;2.53;;
22614;SDS011;11474;50.790;0.298;2023-12-20T01:38:38;9.43;;;2.13;;
22614;SDS011;11474;50.790;0.298;2023-12-20T01:41:05;7.93;;;2.53;;
22614;SDS011;11474;50.790;0.298;2023-12-20T01:43:31;16.80;;;2.60;;
22614;SDS011;11474;50.790;0.298;2023-12-20T01:45:57;11.82;;;2.55;;
22614;SDS011;11474;50.790;0.298;2023-12-20T01:48:23;12.18;;;2.20;;
22614;SDS011;11474;50.790;0.298;2023-12-20T01:50:50;11.00;;;2.13;;
22614;SDS011;11474;50.790;0.298;2023-12-20T01:53:17;15.32;;;2.90;;
22614;SDS011;11474;50.790;0.298;2023-12-20T01:55:45;12.93;;;2.25;;
22614;SDS011;11474;50.790;0.298;2023-12-20T01:58:11;11.65;;;2.30;;
22614;SDS011;11474;50.790;0.298;2023-12-20T02:00:37;14.48;;;2.88;;
22614;SDS011;11474;50.790;0.298;2023-12-20T02:03:04;14.65;;;2.70;;
22614;SDS011;11474;50.790;0.298;2023-12-20T02:05:31;14.23;;;2.30;;
22614;SDS011;11474;50.790;0.298;2023-12-20T02:07:57;11.75;;;2.83;;
22614;SDS011;11474;50.790;0.298;2023-12-20T02:10:23;10.48;;;2.50;;
22614;SDS011;11474;50.790;0.298;2023-12-20T02:12:50;13.40;;;2.33;;
22614;SDS011;11474;50.790;0.298;2023-12-20T02:15:16;18.23;;;3.05;;
22614;SDS011;11474;50.790;0.298;2023-12-20T02:17:42;12.48;;;2.55;;
22614;SDS011;11474;50.790;0.298;2023-12-20T02:20:08;12.93;;;2.53;;
22614;SDS011;11474;50.790;0.298;2023-12-20T02:22:34;12.75;;;2.47;;
22614;SDS011;11474;50.790;0.298;2023-12-20T02:25:00;11.68;;;2.45;;
22614;SDS011;11474;50.790;0.298;2023-12-20T02:27:26;13.17;;;2.37;;
22614;SDS011;11474;50.790;0.298;2023-12-20T02:29:53;13.35;;;2.70;;
22614;SDS011;11474;50.790;0.298;2023-12-20T02:32:19;12.23;;;2.53;;
22614;SDS011;11474;50.790;0.298;2023-12-20T02:34:49;12.18;;;2.90;;
22614;SDS011;11474;50.790;0.298;2023-12-20T02:37:15;15.48;;;2.72;;
22614;SDS011;11474;50.790;0.298;2023-12-20T02:39:41;12.98;;;2.75;;
22614;SDS011;11474;50.790;0.298;2023-12-20T02:42:07;17.45;;;2.67;;
22614;SDS011;11474;50.790;0.298;2023-12-20T02:44:33;18.17;;;2.83;;
22614;SDS011;11474;50.790;0.298;2023-12-20T02:46:59;18.98;;;3.03;;
22614;SDS011;11474;50.790;0.298;2023-12-20T02:49:25;25.85;;;4.40;;
22614;SDS011;11474;50.790;0.298;2023-12-20T02:51:51;13.20;;;2.90;;
22614;SDS011;11474;50.790;0.298;2023-12-20T02:54:17;15.93;;;3.38;;
22614;SDS011;11474;50.790;0.298;2023-12-20T02:56:43;19.85;;;3.58;;
22614;SDS011;11474;50.790;0.298;2023-12-20T02:59:09;20.00;;;3.80;;
22614;SDS011;11474;50.790;0.298;2023-12-20T03:01:41;15.95;;;2.70;;
22614;SDS011;11474;50.790;0.298;2023-12-20T03:04:08;18.52;;;3.40;;
22614;SDS011;11474;50.790;0.298;2023-12-20T03:06:34;20.98;;;3.00;;
22614;SDS011;11474;50.790;0.298;2023-12-20T03:09:00;15.23;;;3.22;;
22614;SDS011;11474;50.790;0.298;2023-12-20T03:11:27;18.25;;;3.10;;
22614;SDS011;11474;50.790;0.298;2023-12-20T03:13:53;20.15;;;3.88;;
22614;SDS011;11474;50.790;0.298;2023-12-20T03:16:19;17.52;;;3.00;;
22614;SDS011;11474;50.790;0.298;2023-12-20T03:18:45;16.47;;;2.90;;
22614;SDS011;11474;50.790;0.298;2023-12-20T03:21:11;18.85;;;3.20;;
22614;SDS011;11474;50.790;0.298;2023-12-20T03:23:38;21.38;;;3.78;;
22614;SDS011;11474;50.790;0.298;2023-12-20T03:26:06;22.73;;;2.93;;
22614;SDS011;11474;50.790;0.298;2023-12-20T03:28:33;18.95;;;3.13;;
22614;SDS011;11474;50.790;0.298;2023-12-20T03:30:59;16.20;;;3.38;;
22614;SDS011;11474;50.790;0.298;2023-12-20T03:33:25;18.17;;;3.25;;
22614;SDS011;11474;50.790;0.298;2023-12-20T03:35:51;18.77;;;3.30;;
22614;SDS011;11474;50.790;0.298;2023-12-20T03:38:17;15.60;;;3.67;;
22614;SDS011;11474;50.790;0.298;2023-12-20T03:40:43;22.92;;;3.50;;
22614;SDS011;11474;50.790;0.298;2023-12-20T03:43:09;18.08;;;3.03;;
22614;SDS011;11474;50.790;0.298;2023-12-20T03:45:35;22.50;;;3.65;;
22614;SDS011;11474;50.790;0.298;2023-12-20T03:48:01;17.83;;;3.35;;
22614;SDS011;11474;50.790;0.298;2023-12-20T03:50:28;25.83;;;3.55;;
22614;SDS011;11474;50.790;0.298;2023-12-20T03:52:54;17.67;;;3.13;;
22614;SDS011;11474;50.790;0.298;2023-12-20T03:55:21;20.53;;;3.30;;
22614;SDS011;11474;50.790;0.298;2023-12-20T03:57:47;12.77;;;2.70;;
22614;SDS011;11474;50.790;0.298;2023-12-20T04:00:13;15.57;;;2.88;;
22614;SDS011;11474;50.790;0.298;2023-12-20T04:02:40;15.55;;;2.95;;
22614;SDS011;11474;50.790;0.298;2023-12-20T04:05:06;18.67;;;3.00;;
22614;SDS011;11474;50.790;0.298;2023-12-20T04:07:32;19.20;;;3.13;;
22614;SDS011;11474;50.790;0.298;2023-12-20T04:09:59;17.00;;;3.55;;
22614;SDS011;11474;50.790;0.298;2023-12-20T04:12:26;13.05;;;2.65;;
22614;SDS011;11474;50.790;0.298;2023-12-20T04:14:52;13.98;;;3.13;;
22614;SDS011;11474;50.790;0.298;2023-12-20T04:17:18;13.95;;;2.95;;
22614;SDS011;11474;50.790;0.298;2023-12-20T04:19:44;12.93;;;2.80;;
22614;SDS011;11474;50.790;0.298;2023-12-20T04:22:10;22.58;;;4.05;;
22614;SDS011;11474;50.790;0.298;2023-12-20T04:24:36;19.27;;;3.08;;
22614;SDS011;11474;50.790;0.298;2023-12-20T04:27:02;21.45;;;3.50;;
22614;SDS011;11474;50.790;0.298;2023-12-20T04:29:28;18.20;;;3.03;;
22614;SDS011;11474;50.790;0.298;2023-12-20T04:31:54;17.88;;;3.47;;
22614;SDS011;11474;50.790;0.298;2023-12-20T04:34:21;19.02;;;3.00;;
22614;SDS011;11474;50.790;0.298;2023-12-20T04:36:48;15.73;;;2.90;;
22614;SDS011;11474;50.790;0.298;2023-12-20T04:39:14;20.27;;;3.60;;
22614;SDS011;11474;50.790;0.298;2023-12-20T04:41:40;16.33;;;3.05;;
22614;SDS011;11474;50.790;0.298;2023-12-20T04:44:06;16.75;;;3.22;;
22614;SDS011;11474;50.790;0.298;2023-12-20T04:46:32;17.13;;;3.22;;
22614;SDS011;11474;50.790;0.298;2023-12-20T04:48:58;17.45;;;2.92;;
22614;SDS011;11474;50.790;0.298;2023-12-20T04:51:24;16.83;;;3.30;;
22614;SDS011;11474;50.790;0.298;2023-12-20T04:53:50;16.02;;;2.83;;
22614;SDS011;11474;50.790;0.298;2023-12-20T04:56:16;14.25;;;2.78;;
22614;SDS011;11474;50.790;0.298;2023-12-20T04:58:42;15.63;;;3.00;;
22614;SDS011;11474;50.790;0.298;2023-12-20T05:01:09;12.73;;;2.88;;
22614;SDS011;11474;50.790;0.298;2023-12-20T05:03:35;18.08;;;3.30;;
22614;SDS011;11474;50.790;0.298;2023-12-20T05:06:01;13.30;;;2.97;;
22614;SDS011;11474;50.790;0.298;2023-12-20T05:08:27;20.67;;;3.20;;
22614;SDS011;11474;50.790;0.298;2023-12-20T05:10:54;18.73;;;2.83;;
22614;SDS011;11474;50.790;0.298;2023-12-20T05:13:20;14.40;;;2.50;;
22614;SDS011;11474;50.790;0.298;2023-12-20T05:15:46;19.42;;;3.63;;
22614;SDS011;11474;50.790;0.298;2023-12-20T05:18:13;15.97;;;2.43;;
22614;SDS011;11474;50.790;0.298;2023-12-20T05:20:39;18.87;;;2.80;;
22614;SDS011;11474;50.790;0.298;2023-12-20T05:23:05;18.83;;;3.28;;
22614;SDS011;11474;50.790;0.298;2023-12-20T05:25:32;12.48;;;2.75;;
22614;SDS011;11474;50.790;0.298;2023-12-20T05:27:58;14.32;;;2.75;;
22614;SDS011;11474;50.790;0.298;2023-12-20T05:30:24;13.50;;;2.70;;
22614;SDS011;11474;50.790;0.298;2023-12-20T05:32:50;12.80;;;2.95;;
22614;SDS011;11474;50.790;0.298;2023-12-20T05:35:16;18.02;;;3.20;;
22614;SDS011;11474;50.790;0.298;2023-12-20T05:37:42;15.90;;;3.07;;
22614;SDS011;11474;50.790;0.298;2023-12-20T05:40:08;20.00;;;3.05;;
22614;SDS011;11474;50.790;0.298;2023-12-20T05:42:35;10.90;;;2.80;;
22614;SDS011;11474;50.790;0.298;2023-12-20T05:45:02;13.33;;;2.90;;
22614;SDS011;11474;50.790;0.298;2023-12-20T05:47:28;16.27;;;2.92;;
22614;SDS011;11474;50.790;0.298;2023-12-20T05:49:54;16.50;;;2.92;;
22614;SDS011;11474;50.790;0.298;2023-12-20T05:52:20;17.37;;;3.13;;
22614;SDS011;11474;50.790;0.298;2023-12-20T05:54:47;14.00;;;2.90;;
22614;SDS011;11474;50.790;0.298;2023-12-20T05:57:13;14.53;;;2.97;;
22614;SDS011;11474;50.790;0.298;2023-12-20T05:59:39;16.02;;;2.80;;
22614;SDS011;11474;50.790;0.298;2023-12-20T06:02:05;16.17;;;2.58;;
22614;SDS011;11474;50.790;0.298;2023-12-20T06:04:32;13.87;;;2.97;;
22614;SDS011;11474;50.790;0.298;2023-12-20T06:06:58;16.35;;;3.05;;
22614;SDS011;11474;50.790;0.298;2023-12-20T06:09:24;16.33;;;2.78;;
22614;SDS011;11474;50.790;0.298;2023-12-20T06:11:51;14.60;;;2.88;;
22614;SDS011;11474;50.790;0.298;2023-12-20T06:14:17;16.02;;;2.90;;
22614;SDS011;11474;50.790;0.298;2023-12-20T06:16:43;12.70;;;2.90;;
22614;SDS011;11474;50.790;0.298;2023-12-20T06:19:10;15.95;;;3.08;;
22614;SDS011;11474;50.790;0.298;2023-12-20T06:21:36;13.93;;;2.85;;
22614;SDS011;11474;50.790;0.298;2023-12-20T06:24:02;14.77;;;2.92;;
22614;SDS011;11474;50.790;0.298;2023-12-20T06:26:28;19.85;;;3.63;;
22614;SDS011;11474;50.790;0.298;2023-12-20T06:28:54;19.43;;;2.93;;
22614;SDS011;11474;50.790;0.298;2023-12-20T06:31:20;15.43;;;2.70;;
22614;SDS011;11474;50.790;0.298;2023-12-20T06:33:46;19.73;;;3.00;;
22614;SDS011;11474;50.790;0.298;2023-12-20T06:36:14;12.05;;;3.10;;
22614;SDS011;11474;50.790;0.298;2023-12-20T06:38:40;15.32;;;3.20;;
22614;SDS011;11474;50.790;0.298;2023-12-20T06:41:12;17.20;;;3.00;;
22614;SDS011;11474;50.790;0.298;2023-12-20T06:43:39;18.25;;;3.40;;
22614;SDS011;11474;50.790;0.298;2023-12-20T06:46:06;17.67;;;3.58;;
22614;SDS011;11474;50.790;0.298;2023-12-20T06:48:32;18.92;;;3.67;;
22614;SDS011;11474;50.790;0.298;2023-12-20T06:50:59;19.38;;;3.38;;
22614;SDS011;11474;50.790;0.298;2023-12-20T06:53:27;17.73;;;3.30;;
22614;SDS011;11474;50.790;0.298;2023-12-20T06:55:53;17.70;;;3.40;;
22614;SDS011;11474;50.790;0.298;2023-12-20T06:58:21;21.05;;;3.65;;
22614;SDS011;11474;50.790;0.298;2023-12-20T07:00:47;15.60;;;3.28;;
22614;SDS011;11474;50.790;0.298;2023-12-20T07:03:13;21.30;;;3.35;;
22614;SDS011;11474;50.790;0.298;2023-12-20T07:05:39;20.33;;;3.35;;
22614;SDS011;11474;50.790;0.298;2023-12-20T07:08:06;19.45;;;3.75;;
22614;SDS011;11474;50.790;0.298;2023-12-20T07:10:32;20.38;;;3.83;;
22614;SDS011;11474;50.790;0.298;2023-12-20T07:12:58;23.75;;;4.18;;
22614;SDS011;11474;50.790;0.298;2023-12-20T07:15:24;20.80;;;3.42;;
22614;SDS011;11474;50.790;0.298;2023-12-20T07:17:51;15.53;;;3.23;;
22614;SDS011;11474;50.790;0.298;2023-12-20T07:20:17;24.17;;;3.30;;
22614;SDS011;11474;50.790;0.298;2023-12-20T07:22:43;18.83;;;3.97;;
22614;SDS011;11474;50.790;0.298;2023-12-20T07:25:10;20.52;;;3.45;;
22614;SDS011;11474;50.790;0.298;2023-12-20T07:27:36;22.95;;;3.85;;
22614;SDS011;11474;50.790;0.298;2023-12-20T07:30:02;21.47;;;3.47;;
22614;SDS011;11474;50.790;0.298;2023-12-20T07:32:28;21.92;;;3.70;;
22614;SDS011;11474;50.790;0.298;2023-12-20T07:34:55;21.02;;;4.53;;
22614;SDS011;11474;50.790;0.298;2023-12-20T07:37:21;15.77;;;3.55;;
22614;SDS011;11474;50.790;0.298;2023-12-20T07:39:47;23.08;;;3.63;;
22614;SDS011;11474;50.790;0.298;2023-12-20T07:42:13;20.57;;;3.87;;
22614;SDS011;11474;50.790;0.298;2023-12-20T07:44:39;21.25;;;3.78;;
22614;SDS011;11474;50.790;0.298;2023-12-20T07:47:06;19.00;;;3.47;;
22614;SDS011;11474;50.790;0.298;2023-12-20T07:49:32;19.63;;;4.43;;
22614;SDS011;11474;50.790;0.298;2023-12-20T07:51:58;22.85;;;3.65;;
22614;SDS011;11474;50.790;0.298;2023-12-20T07:54:25;24.83;;;3.75;;
22614;SDS011;11474;50.790;0.298;2023-12-20T07:56:51;25.63;;;4.50;;
22614;SDS011;11474;50.790;0.298;2023-12-20T07:59:17;21.88;;;3.75;;
22614;SDS011;11474;50.790;0.298;2023-12-20T08:01:43;20.13;;;4.07;;
22614;SDS011;11474;50.790;0.298;2023-12-20T08:04:09;21.50;;;3.83;;
22614;SDS011;11474;50.790;0.298;2023-12-20T08:06:35;21.23;;;4.30;;
22614;SDS011;11474;50.790;0.298;2023-12-20T08:09:01;24.98;;;4.45;;
22614;SDS011;11474;50.790;0.298;2023-12-20T08:11:28;26.10;;;4.20;;
22614;SDS011;11474;50.790;0.298;2023-12-20T08:13:54;20.80;;;3.70;;
22614;SDS011;11474;50.790;0.298;2023-12-20T08:16:20;22.10;;;3.60;;
22614;SDS011;11474;50.790;0.298;2023-12-20T08:18:47;30.83;;;4.70;;
22614;SDS011;11474;50.790;0.298;2023-12-20T08:21:13;25.73;;;4.30;;
22614;SDS011;11474;50.790;0.298;2023-12-20T08:23:39;24.50;;;4.43;;
22614;SDS011;11474;50.790;0.298;2023-12-20T08:26:06;23.67;;;4.05;;
22614;SDS011;11474;50.790;0.298;2023-12-20T08:28:32;22.85;;;4.05;;
22614;SDS011;11474;50.790;0.298;2023-12-20T08:30:58;17.92;;;3.38;;
22614;SDS011;11474;50.790;0.298;2023-12-20T08:33:24;23.13;;;3.78;;
22614;SDS011;11474;50.790;0.298;2023-12-20T08:35:50;21.80;;;4.10;;
22614;SDS011;11474;50.790;0.298;2023-12-20T08:38:16;14.95;;;2.97;;
22614;SDS011;11474;50.790;0.298;2023-12-20T08:40:43;22.17;;;3.67;;
22614;SDS011;11474;50.790;0.298;2023-12-20T08:43:09;22.05;;;4.25;;
22614;SDS011;11474;50.790;0.298;2023-12-20T08:45:35;17.92;;;3.40;;
22614;SDS011;11474;50.790;0.298;2023-12-20T08:48:01;16.97;;;3.13;;
22614;SDS011;11474;50.790;0.298;2023-12-20T08:50:28;16.70;;;3.60;;
22614;SDS011;11474;50.790;0.298;2023-12-20T08:52:54;16.80;;;2.88;;
22614;SDS011;11474;50.790;0.298;2023-12-20T08:55:20;23.42;;;3.75;;
22614;SDS011;11474;50.790;0.298;2023-12-20T08:57:46;23.52;;;4.03;;
22614;SDS011;11474;50.790;0.298;2023-12-20T09:00:13;19.75;;;3.30;;
22614;SDS011;11474;50.790;0.298;2023-12-20T09:02:39;20.98;;;3.20;;
22614;SDS011;11474;50.790;0.298;2023-12-20T09:05:05;20.13;;;3.65;;
22614;SDS011;11474;50.790;0.298;2023-12-20T09:07:31;16.15;;;3.63;;
22614;SDS011;11474;50.790;0.298;2023-12-20T09:09:58;20.65;;;3.78;;
22614;SDS011;11474;50.790;0.298;2023-12-20T09:12:24;19.63;;;3.38;;
22614;SDS011;11474;50.790;0.298;2023-12-20T09:14:51;17.50;;;3.58;;
22614;SDS011;11474;50.790;0.298;2023-12-20T09:17:18;20.60;;;3.42;;
22614;SDS011;11474;50.790;0.298;2023-12-20T09:19:44;20.65;;;3.50;;
22614;SDS011;11474;50.790;0.298;2023-12-20T09:22:11;24.58;;;3.80;;
22614;SDS011;11474;50.790;0.298;2023-12-20T09:24:37;15.07;;;2.78;;
22614;SDS011;11474;50.790;0.298;2023-12-20T09:27:04;18.73;;;3.35;;
22614;SDS011;11474;50.790;0.298;2023-12-20T09:29:30;20.60;;;3.72;;
22614;SDS011;11474;50.790;0.298;2023-12-20T09:31:57;18.48;;;4.38;;
22614;SDS011;11474;50.790;0.298;2023-12-20T09:34:23;23.83;;;4.25;;
22614;SDS011;11474;50.790;0.298;2023-12-20T09:36:50;18.03;;;3.70;;
22614;SDS011;11474;50.790;0.298;2023-12-20T09:39:17;19.40;;;3.63;;
22614;SDS011;11474;50.790;0.298;2023-12-20T09:41:44;23.75;;;3.80;;
22614;SDS011;11474;50.790;0.298;2023-12-20T09:44:15;18.10;;;4.03;;
22614;SDS011;11474;50.790;0.298;2023-12-20T09:46:43;24.13;;;4.38;;
22614;SDS011;11474;50.790;0.298;2023-12-20T09:49:10;19.20;;;4.40;;
22614;SDS011;11474;50.790;0.298;2023-12-20T09:51:37;21.23;;;4.35;;
22614;SDS011;11474;50.790;0.298;2023-12-20T09:54:03;20.05;;;4.35;;
22614;SDS011;11474;50.790;0.298;2023-12-20T09:56:29;20.38;;;3.88;;
22614;SDS011;11474;50.790;0.298;2023-12-20T09:58:56;20.08;;;3.92;;
22614;SDS011;11474;50.790;0.298;2023-12-20T10:01:22;18.35;;;3.58;;
22614;SDS011;11474;50.790;0.298;2023-12-20T10:03:50;17.88;;;3.90;;
22614;SDS011;11474;50.790;0.298;2023-12-20T10:06:16;15.80;;;3.35;;
22614;SDS011;11474;50.790;0.298;2023-12-20T10:08:43;21.55;;;3.72;;
22614;SDS011;11474;50.790;0.298;2023-12-20T10:11:11;19.73;;;4.00;;
22614;SDS011;11474;50.790;0.298;2023-12-20T10:13:39;15.48;;;4.07;;
22614;SDS011;11474;50.790;0.298;2023-12-20T10:16:06;17.73;;;3.93;;
22614;SDS011;11474;50.790;0.298;2023-12-20T10:18:35;20.33;;;4.00;;
22614;SDS011;11474;50.790;0.298;2023-12-20T10:21:01;18.80;;;4.10;;
22614;SDS011;11474;50.790;0.298;2023-12-20T10:23:28;23.23;;;4.20;;
22614;SDS011;11474;50.790;0.298;2023-12-20T10:25:57;22.87;;;4.10;;
22614;SDS011;11474;50.790;0.298;2023-12-20T10:28:24;19.77;;;3.53;;
22614;SDS011;11474;50.790;0.298;2023-12-20T10:30:53;21.30;;;3.95;;
22614;SDS011;11474;50.790;0.298;2023-12-20T10:33:28;21.05;;;3.70;;
22614;SDS011;11474;50.790;0.298;2023-12-20T10:35:55;20.73;;;3.83;;
22614;SDS011;11474;50.790;0.298;2023-12-20T10:38:21;14.55;;;3.45;;
22614;SDS011;11474;50.790;0.298;2023-12-20T10:40:48;16.70;;;3.67;;
22614;SDS011;11474;50.790;0.298;2023-12-20T10:43:15;17.30;;;3.58;;
22614;SDS011;11474;50.790;0.298;2023-12-20T10:45:41;17.33;;;3.42;;
22614;SDS011;11474;50.790;0.298;2023-12-20T10:48:09;18.30;;;3.10;;
22614;SDS011;11474;50.790;0.298;2023-12-20T10:50:37;18.77;;;3.55;;
22614;SDS011;11474;50.790;0.298;2023-12-20T10:53:06;17.15;;;3.15;;
22614;SDS011;11474;50.790;0.298;2023-12-20T10:55:33;19.25;;;3.45;;
22614;SDS011;11474;50.790;0.298;2023-12-20T10:58:08;14.27;;;3.20;;
22614;SDS011;11474;50.790;0.298;2023-12-20T11:00:36;18.88;;;3.50;;
22614;SDS011;11474;50.790;0.298;2023-12-20T11:03:04;20.42;;;3.15;;
22614;SDS011;11474;50.790;0.298;2023-12-20T11:08:06;18.40;;;2.95;;
22614;SDS011;11474;50.790;0.298;2023-12-20T11:10:42;20.70;;;3.67;;
22614;SDS011;11474;50.790;0.298;2023-12-20T11:13:34;20.35;;;3.42;;
22614;SDS011;11474;50.790;0.298;2023-12-20T11:15:56;25.13;;;3.58;;
22614;SDS011;11474;50.790;0.298;2023-12-20T11:18:28;19.65;;;3.20;;
22614;SDS011;11474;50.790;0.298;2023-12-20T11:20:54;17.52;;;3.50;;
22614;SDS011;11474;50.790;0.298;2023-12-20T11:23:20;16.97;;;3.13;;
22614;SDS011;11474;50.790;0.298;2023-12-20T11:25:48;23.67;;;3.92;;
22614;SDS011;11474;50.790;0.298;2023-12-20T11:28:14;18.23;;;3.20;;
22614;SDS011;11474;50.790;0.298;2023-12-20T11:33:09;20.52;;;3.47;;
22614;SDS011;11474;50.790;0.298;2023-12-20T11:35:35;17.10;;;3.97;;
22614;SDS011;11474;50.790;0.298;2023-12-20T11:38:02;23.25;;;3.78;;
22614;SDS011;11474;50.790;0.298;2023-12-20T11:40:30;25.75;;;4.35;;
22614;SDS011;11474;50.790;0.298;2023-12-20T11:42:59;18.73;;;3.75;;
22614;SDS011;11474;50.790;0.298;2023-12-20T11:45:25;18.35;;;3.22;;
22614;SDS011;11474;50.790;0.298;2023-12-20T11:47:52;20.35;;;3.50;;
22614;SDS011;11474;50.790;0.298;2023-12-20T11:50:20;21.52;;;3.75;;
22614;SDS011;11474;50.790;0.298;2023-12-20T11:52:46;20.80;;;3.72;;
22614;SDS011;11474;50.790;0.298;2023-12-20T11:55:13;23.48;;;3.55;;
22614;SDS011;11474;50.790;0.298;2023-12-20T11:57:39;19.55;;;4.10;;
22614;SDS011;11474;50.790;0.298;2023-12-20T12:00:05;23.95;;;3.03;;
22614;SDS011;11474;50.790;0.298;2023-12-20T12:02:31;23.35;;;4.10;;
22614;SDS011;11474;50.790;0.298;2023-12-20T12:04:59;21.20;;;3.75;;
22614;SDS011;11474;50.790;0.298;2023-12-20T12:07:25;13.23;;;3.25;;
22614;SDS011;11474;50.790;0.298;2023-12-20T12:09:55;20.58;;;3.78;;
22614;SDS011;11474;50.790;0.298;2023-12-20T12:12:41;20.92;;;3.78;;
22614;SDS011;11474;50.790;0.298;2023-12-20T12:15:20;20.95;;;3.65;;
22614;SDS011;11474;50.790;0.298;2023-12-20T12:21:30;13.30;;;3.22;;
22614;SDS011;11474;50.790;0.298;2023-12-20T12:24:09;15.85;;;3.45;;
22614;SDS011;11474;50.790;0.298;2023-12-20T12:26:35;18.90;;;3.70;;
22614;SDS011;11474;50.790;0.298;2023-12-20T12:29:01;18.73;;;3.25;;
22614;SDS011;11474;50.790;0.298;2023-12-20T12:31:27;17.08;;;3.50;;
22614;SDS011;11474;50.790;0.298;2023-12-20T12:33:53;17.50;;;3.05;;
22614;SDS011;11474;50.790;0.298;2023-12-20T12:36:19;22.73;;;3.00;;
22614;SDS011;11474;50.790;0.298;2023-12-20T12:38:46;18.95;;;2.97;;
22614;SDS011;11474;50.790;0.298;2023-12-20T12:41:15;19.25;;;3.28;;
22614;SDS011;11474;50.790;0.298;2023-12-20T12:43:41;19.25;;;2.92;;
22614;SDS011;11474;50.790;0.298;2023-12-20T12:46:07;15.23;;;3.37;;
22614;SDS011;11474;50.790;0.298;2023-12-20T12:48:34;16.75;;;2.78;;
22614;SDS011;11474;50.790;0.298;2023-12-20T12:51:00;15.30;;;3.17;;
22614;SDS011;11474;50.790;0.298;2023-12-20T12:53:26;20.83;;;3.22;;
22614;SDS011;11474;50.790;0.298;2023-12-20T12:55:52;23.08;;;3.67;;
22614;SDS011;11474;50.790;0.298;2023-12-20T12:58:19;19.67;;;3.08;;
22614;SDS011;11474;50.790;0.298;2023-12-20T13:00:45;17.38;;;3.10;;
22614;SDS011;11474;50.790;0.298;2023-12-20T13:03:12;13.98;;;2.78;;
22614;SDS011;11474;50.790;0.298;2023-12-20T13:05:38;13.90;;;3.03;;
22614;SDS011;11474;50.790;0.298;2023-12-20T13:08:04;12.77;;;2.35;;
22614;SDS011;11474;50.790;0.298;2023-12-20T13:10:30;16.58;;;2.88;;
22614;SDS011;11474;50.790;0.298;2023-12-20T13:12:56;15.10;;;2.63;;
22614;SDS011;11474;50.790;0.298;2023-12-20T13:15:22;14.27;;;2.78;;
22614;SDS011;11474;50.790;0.298;2023-12-20T13:17:48;18.83;;;3.35;;
22614;SDS011;11474;50.790;0.298;2023-12-20T13:20:15;18.30;;;2.97;;
22614;SDS011;11474;50.790;0.298;2023-12-20T13:22:41;13.65;;;2.88;;
22614;SDS011;11474;50.790;0.298;2023-12-20T13:25:08;16.17;;;2.70;;
22614;SDS011;11474;50.790;0.298;2023-12-20T13:27:34;19.23;;;2.78;;
22614;SDS011;11474;50.790;0.298;2023-12-20T13:30:00;17.63;;;2.55;;
22614;SDS011;11474;50.790;0.298;2023-12-20T13:32:26;15.13;;;3.20;;
22614;SDS011;11474;50.790;0.298;2023-12-20T13:34:52;15.57;;;2.92;;
22614;SDS011;11474;50.790;0.298;2023-12-20T13:37:18;16.83;;;2.65;;
22614;SDS011;11474;50.790;0.298;2023-12-20T13:39:44;14.20;;;2.90;;
22614;SDS011;11474;50.790;0.298;2023-12-20T13:42:11;14.45;;;2.50;;
22614;SDS011;11474;50.790;0.298;2023-12-20T13:44:37;16.25;;;2.35;;
22614;SDS011;11474;50.790;0.298;2023-12-20T13:47:03;9.75;;;2.65;;
22614;SDS011;11474;50.790;0.298;2023-12-20T13:49:29;15.93;;;3.20;;
22614;SDS011;11474;50.790;0.298;2023-12-20T13:51:55;11.52;;;2.45;;
22614;SDS011;11474;50.790;0.298;2023-12-20T13:54:22;12.98;;;2.63;;
22614;SDS011;11474;50.790;0.298;2023-12-20T13:56:49;12.88;;;2.50;;
22614;SDS011;11474;50.790;0.298;2023-12-20T13:59:15;15.05;;;3.30;;
22614;SDS011;11474;50.790;0.298;2023-12-20T14:01:41;15.50;;;3.08;;
22614;SDS011;11474;50.790;0.298;2023-12-20T14:04:07;12.02;;;2.65;;
22614;SDS011;11474;50.790;0.298;2023-12-20T14:06:33;17.42;;;3.08;;
22614;SDS011;11474;50.790;0.298;2023-12-20T14:08:59;14.38;;;2.58;;
22614;SDS011;11474;50.790;0.298;2023-12-20T14:11:26;9.38;;;1.92;;
22614;SDS011;11474;50.790;0.298;2023-12-20T14:13:52;14.37;;;2.60;;
22614;SDS011;11474;50.790;0.298;2023-12-20T14:16:22;19.98;;;3.42;;
22614;SDS011;11474;50.790;0.298;2023-12-20T14:18:48;16.83;;;2.92;;
22614;SDS011;11474;50.790;0.298;2023-12-20T14:21:17;17.73;;;3.13;;
22614;SDS011;11474;50.790;0.298;2023-12-20T14:23:44;11.95;;;2.70;;
22614;SDS011;11474;50.790;0.298;2023-12-20T14:26:11;19.98;;;2.97;;
22614;SDS011;11474;50.790;0.298;2023-12-20T14:28:40;11.88;;;2.33;;
22614;SDS011;11474;50.790;0.298;2023-12-20T14:31:06;15.57;;;2.75;;
22614;SDS011;11474;50.790;0.298;2023-12-20T14:33:33;11.05;;;2.10;;
22614;SDS011;11474;50.790;0.298;2023-12-20T14:35:59;14.20;;;2.43;;
22614;SDS011;11474;50.790;0.298;2023-12-20T14:38:25;18.33;;;2.63;;
22614;SDS011;11474;50.790;0.298;2023-12-20T14:40:52;15.83;;;2.50;;